sensor_id;sensor_type;location;lat;lon;timestamp;P1;durP1;ratioP1;P2;durP2;ratioP2
69161;SDS011;56269;51.738;21.652;2023-04-03T00:01:50;4.38;;;1.55;;
69161;SDS011;56269;51.738;21.652;2023-04-03T00:04:16;3.45;;;1.20;;
69161;SDS011;56269;51.738;21.652;2023-04-03T00:06:43;3.80;;;1.00;;
69161;SDS011;56269;51.738;21.652;2023-04-03T00:09:09;3.15;;;0.80;;
69161;SDS011;56269;51.738;21.652;2023-04-03T00:11:36;3.28;;;1.10;;
69161;SDS011;56269;51.738;21.652;2023-04-03T00:14:02;3.17;;;0.90;;
69161;SDS011;56269;51.738;21.652;2023-04-03T00:16:29;6.28;;;1.30;;
69161;SDS011;56269;51.738;21.652;2023-04-03T00:18:55;4.23;;;1.00;;
69161;SDS011;56269;51.738;21.652;2023-04-03T00:21:22;4.32;;;1.20;;
69161;SDS011;56269;51.738;21.652;2023-04-03T00:23:49;2.95;;;0.77;;
69161;SDS011;56269;51.738;21.652;2023-04-03T00:26:16;3.08;;;1.27;;
69161;SDS011;56269;51.738;21.652;2023-04-03T00:28:42;3.40;;;0.95;;
69161;SDS011;56269;51.738;21.652;2023-04-03T00:31:09;5.50;;;1.50;;
69161;SDS011;56269;51.738;21.652;2023-04-03T00:33:35;3.65;;;0.90;;
69161;SDS011;56269;51.738;21.652;2023-04-03T00:36:06;3.05;;;1.00;;
69161;SDS011;56269;51.738;21.652;2023-04-03T00:38:33;3.30;;;1.00;;
69161;SDS011;56269;51.738;21.652;2023-04-03T00:40:59;6.85;;;1.17;;
69161;SDS011;56269;51.738;21.652;2023-04-03T00:43:25;5.93;;;1.00;;
69161;SDS011;56269;51.738;21.652;2023-04-03T00:45:54;2.80;;;0.95;;
69161;SDS011;56269;51.738;21.652;2023-04-03T00:48:25;2.40;;;1.00;;
69161;SDS011;56269;51.738;21.652;2023-04-03T00:50:55;2.40;;;0.73;;
69161;SDS011;56269;51.738;21.652;2023-04-03T00:53:23;4.00;;;0.95;;
69161;SDS011;56269;51.738;21.652;2023-04-03T00:55:54;2.63;;;0.80;;
69161;SDS011;56269;51.738;21.652;2023-04-03T00:58:22;4.22;;;1.00;;
69161;SDS011;56269;51.738;21.652;2023-04-03T01:00:59;2.10;;;0.80;;
69161;SDS011;56269;51.738;21.652;2023-04-03T01:03:31;3.13;;;0.95;;
69161;SDS011;56269;51.738;21.652;2023-04-03T01:05:57;2.90;;;1.00;;
69161;SDS011;56269;51.738;21.652;2023-04-03T01:08:25;2.63;;;0.83;;
69161;SDS011;56269;51.738;21.652;2023-04-03T01:10:52;2.65;;;0.73;;
69161;SDS011;56269;51.738;21.652;2023-04-03T01:15:50;4.20;;;1.25;;
69161;SDS011;56269;51.738;21.652;2023-04-03T01:18:16;2.75;;;1.00;;
69161;SDS011;56269;51.738;21.652;2023-04-03T01:21:03;3.27;;;0.90;;
69161;SDS011;56269;51.738;21.652;2023-04-03T01:23:44;5.93;;;1.15;;
69161;SDS011;56269;51.738;21.652;2023-04-03T01:26:18;2.85;;;0.85;;
69161;SDS011;56269;51.738;21.652;2023-04-03T01:28:45;2.72;;;0.95;;
69161;SDS011;56269;51.738;21.652;2023-04-03T01:31:19;2.20;;;0.88;;
69161;SDS011;56269;51.738;21.652;2023-04-03T01:34:01;2.50;;;0.90;;
69161;SDS011;56269;51.738;21.652;2023-04-03T01:36:29;3.45;;;0.70;;
69161;SDS011;56269;51.738;21.652;2023-04-03T01:38:57;2.95;;;1.00;;
69161;SDS011;56269;51.738;21.652;2023-04-03T01:41:25;5.47;;;0.85;;
69161;SDS011;56269;51.738;21.652;2023-04-03T01:43:51;2.60;;;0.80;;
69161;SDS011;56269;51.738;21.652;2023-04-03T01:46:18;1.53;;;0.73;;
69161;SDS011;56269;51.738;21.652;2023-04-03T01:48:45;2.83;;;0.73;;
69161;SDS011;56269;51.738;21.652;2023-04-03T01:51:12;1.55;;;0.60;;
69161;SDS011;56269;51.738;21.652;2023-04-03T01:53:38;1.92;;;0.70;;
69161;SDS011;56269;51.738;21.652;2023-04-03T01:56:05;1.85;;;0.77;;
69161;SDS011;56269;51.738;21.652;2023-04-03T01:58:31;2.90;;;0.87;;
69161;SDS011;56269;51.738;21.652;2023-04-03T02:00:58;4.05;;;1.30;;
69161;SDS011;56269;51.738;21.652;2023-04-03T02:03:24;1.92;;;0.73;;
69161;SDS011;56269;51.738;21.652;2023-04-03T02:05:51;1.98;;;0.52;;
69161;SDS011;56269;51.738;21.652;2023-04-03T02:08:17;2.42;;;0.88;;
69161;SDS011;56269;51.738;21.652;2023-04-03T02:10:44;2.07;;;0.67;;
69161;SDS011;56269;51.738;21.652;2023-04-03T02:13:13;3.78;;;0.80;;
69161;SDS011;56269;51.738;21.652;2023-04-03T02:15:41;5.07;;;1.05;;
69161;SDS011;56269;51.738;21.652;2023-04-03T02:18:08;3.72;;;0.93;;
69161;SDS011;56269;51.738;21.652;2023-04-03T02:20:35;2.58;;;0.80;;
69161;SDS011;56269;51.738;21.652;2023-04-03T02:23:01;2.80;;;0.80;;
69161;SDS011;56269;51.738;21.652;2023-04-03T02:25:29;1.98;;;0.80;;
69161;SDS011;56269;51.738;21.652;2023-04-03T02:27:56;3.92;;;0.80;;
69161;SDS011;56269;51.738;21.652;2023-04-03T02:30:23;3.13;;;0.98;;
69161;SDS011;56269;51.738;21.652;2023-04-03T02:32:50;3.30;;;1.00;;
69161;SDS011;56269;51.738;21.652;2023-04-03T02:35:16;4.10;;;0.87;;
69161;SDS011;56269;51.738;21.652;2023-04-03T02:37:42;4.53;;;0.85;;
69161;SDS011;56269;51.738;21.652;2023-04-03T02:40:09;2.33;;;0.82;;
69161;SDS011;56269;51.738;21.652;2023-04-03T02:42:38;4.20;;;0.93;;
69161;SDS011;56269;51.738;21.652;2023-04-03T02:45:04;3.60;;;1.00;;
69161;SDS011;56269;51.738;21.652;2023-04-03T02:47:31;3.07;;;0.70;;
69161;SDS011;56269;51.738;21.652;2023-04-03T02:49:57;3.58;;;0.82;;
69161;SDS011;56269;51.738;21.652;2023-04-03T02:52:24;2.60;;;0.80;;
69161;SDS011;56269;51.738;21.652;2023-04-03T02:54:51;1.83;;;0.70;;
69161;SDS011;56269;51.738;21.652;2023-04-03T02:57:17;5.38;;;0.93;;
69161;SDS011;56269;51.738;21.652;2023-04-03T02:59:43;2.27;;;0.70;;
69161;SDS011;56269;51.738;21.652;2023-04-03T03:02:09;2.60;;;0.70;;
69161;SDS011;56269;51.738;21.652;2023-04-03T03:04:36;2.30;;;0.77;;
69161;SDS011;56269;51.738;21.652;2023-04-03T03:07:03;3.08;;;0.80;;
69161;SDS011;56269;51.738;21.652;2023-04-03T03:09:33;2.53;;;0.70;;
69161;SDS011;56269;51.738;21.652;2023-04-03T03:12:00;2.67;;;0.90;;
69161;SDS011;56269;51.738;21.652;2023-04-03T03:14:26;2.97;;;0.82;;
69161;SDS011;56269;51.738;21.652;2023-04-03T03:16:52;3.03;;;0.68;;
69161;SDS011;56269;51.738;21.652;2023-04-03T03:19:21;2.63;;;0.70;;
69161;SDS011;56269;51.738;21.652;2023-04-03T03:21:47;4.45;;;1.00;;
69161;SDS011;56269;51.738;21.652;2023-04-03T03:24:14;4.13;;;0.90;;
69161;SDS011;56269;51.738;21.652;2023-04-03T03:26:41;1.75;;;0.80;;
69161;SDS011;56269;51.738;21.652;2023-04-03T03:29:09;1.55;;;0.70;;
69161;SDS011;56269;51.738;21.652;2023-04-03T03:31:35;4.78;;;0.70;;
69161;SDS011;56269;51.738;21.652;2023-04-03T03:34:02;2.47;;;0.98;;
69161;SDS011;56269;51.738;21.652;2023-04-03T03:36:28;1.47;;;0.80;;
69161;SDS011;56269;51.738;21.652;2023-04-03T03:38:54;2.25;;;0.70;;
69161;SDS011;56269;51.738;21.652;2023-04-03T03:41:20;2.33;;;0.75;;
69161;SDS011;56269;51.738;21.652;2023-04-03T03:43:47;2.10;;;0.80;;
69161;SDS011;56269;51.738;21.652;2023-04-03T03:46:13;4.82;;;0.95;;
69161;SDS011;56269;51.738;21.652;2023-04-03T03:48:40;2.13;;;0.70;;
69161;SDS011;56269;51.738;21.652;2023-04-03T03:51:06;3.45;;;1.02;;
69161;SDS011;56269;51.738;21.652;2023-04-03T03:53:33;3.22;;;1.10;;
69161;SDS011;56269;51.738;21.652;2023-04-03T03:55:59;3.53;;;0.80;;
69161;SDS011;56269;51.738;21.652;2023-04-03T03:58:26;2.88;;;0.80;;
69161;SDS011;56269;51.738;21.652;2023-04-03T04:00:52;4.53;;;0.90;;
69161;SDS011;56269;51.738;21.652;2023-04-03T04:03:19;2.78;;;0.82;;
69161;SDS011;56269;51.738;21.652;2023-04-03T04:05:46;4.13;;;0.80;;
69161;SDS011;56269;51.738;21.652;2023-04-03T04:08:13;2.70;;;0.90;;
69161;SDS011;56269;51.738;21.652;2023-04-03T04:10:40;2.92;;;0.82;;
69161;SDS011;56269;51.738;21.652;2023-04-03T04:13:06;3.33;;;0.70;;
69161;SDS011;56269;51.738;21.652;2023-04-03T04:15:33;1.85;;;0.73;;
69161;SDS011;56269;51.738;21.652;2023-04-03T04:18:00;3.17;;;0.85;;
69161;SDS011;56269;51.738;21.652;2023-04-03T04:20:26;1.48;;;0.60;;
69161;SDS011;56269;51.738;21.652;2023-04-03T04:22:52;2.50;;;0.70;;
69161;SDS011;56269;51.738;21.652;2023-04-03T04:25:19;2.63;;;0.73;;
69161;SDS011;56269;51.738;21.652;2023-04-03T04:27:45;3.22;;;0.70;;
69161;SDS011;56269;51.738;21.652;2023-04-03T04:30:12;6.10;;;0.85;;
69161;SDS011;56269;51.738;21.652;2023-04-03T04:32:39;2.65;;;0.80;;
69161;SDS011;56269;51.738;21.652;2023-04-03T04:35:05;2.38;;;0.70;;
69161;SDS011;56269;51.738;21.652;2023-04-03T04:37:32;2.50;;;0.60;;
69161;SDS011;56269;51.738;21.652;2023-04-03T04:39:58;2.40;;;0.80;;
69161;SDS011;56269;51.738;21.652;2023-04-03T04:42:26;3.20;;;1.00;;
69161;SDS011;56269;51.738;21.652;2023-04-03T04:44:53;2.25;;;0.65;;
69161;SDS011;56269;51.738;21.652;2023-04-03T04:47:19;3.35;;;1.23;;
69161;SDS011;56269;51.738;21.652;2023-04-03T04:49:45;3.43;;;0.97;;
69161;SDS011;56269;51.738;21.652;2023-04-03T04:52:13;2.20;;;0.73;;
69161;SDS011;56269;51.738;21.652;2023-04-03T04:54:39;1.42;;;0.50;;
69161;SDS011;56269;51.738;21.652;2023-04-03T04:57:07;2.95;;;0.82;;
69161;SDS011;56269;51.738;21.652;2023-04-03T04:59:33;4.40;;;1.20;;
69161;SDS011;56269;51.738;21.652;2023-04-03T05:02:00;3.87;;;1.07;;
69161;SDS011;56269;51.738;21.652;2023-04-03T05:04:27;2.95;;;1.00;;
69161;SDS011;56269;51.738;21.652;2023-04-03T05:06:53;2.25;;;0.85;;
69161;SDS011;56269;51.738;21.652;2023-04-03T05:09:20;2.65;;;0.70;;
69161;SDS011;56269;51.738;21.652;2023-04-03T05:11:46;3.45;;;1.00;;
69161;SDS011;56269;51.738;21.652;2023-04-03T05:14:12;3.30;;;1.00;;
69161;SDS011;56269;51.738;21.652;2023-04-03T05:16:39;1.88;;;0.80;;
69161;SDS011;56269;51.738;21.652;2023-04-03T05:19:05;2.67;;;1.00;;
69161;SDS011;56269;51.738;21.652;2023-04-03T05:21:32;2.35;;;0.80;;
69161;SDS011;56269;51.738;21.652;2023-04-03T05:23:59;3.50;;;0.90;;
69161;SDS011;56269;51.738;21.652;2023-04-03T05:26:31;2.63;;;1.00;;
69161;SDS011;56269;51.738;21.652;2023-04-03T05:28:57;4.30;;;1.13;;
69161;SDS011;56269;51.738;21.652;2023-04-03T05:31:24;2.78;;;0.98;;
69161;SDS011;56269;51.738;21.652;2023-04-03T05:33:51;2.42;;;0.80;;
69161;SDS011;56269;51.738;21.652;2023-04-03T05:36:18;1.58;;;0.70;;
69161;SDS011;56269;51.738;21.652;2023-04-03T05:38:45;3.83;;;0.97;;
69161;SDS011;56269;51.738;21.652;2023-04-03T05:41:11;4.35;;;1.10;;
69161;SDS011;56269;51.738;21.652;2023-04-03T05:43:38;3.83;;;0.90;;
69161;SDS011;56269;51.738;21.652;2023-04-03T05:46:11;2.42;;;0.90;;
69161;SDS011;56269;51.738;21.652;2023-04-03T05:48:41;2.00;;;0.80;;
69161;SDS011;56269;51.738;21.652;2023-04-03T05:51:16;2.43;;;0.90;;
69161;SDS011;56269;51.738;21.652;2023-04-03T05:53:44;2.15;;;0.88;;
69161;SDS011;56269;51.738;21.652;2023-04-03T05:56:13;5.22;;;1.00;;
69161;SDS011;56269;51.738;21.652;2023-04-03T05:58:39;2.88;;;0.80;;
69161;SDS011;56269;51.738;21.652;2023-04-03T06:01:05;3.50;;;1.30;;
69161;SDS011;56269;51.738;21.652;2023-04-03T06:03:32;2.00;;;0.80;;
69161;SDS011;56269;51.738;21.652;2023-04-03T06:06:00;2.50;;;1.00;;
69161;SDS011;56269;51.738;21.652;2023-04-03T06:08:30;3.28;;;1.05;;
69161;SDS011;56269;51.738;21.652;2023-04-03T06:10:57;2.30;;;0.80;;
69161;SDS011;56269;51.738;21.652;2023-04-03T06:13:23;4.20;;;1.27;;
69161;SDS011;56269;51.738;21.652;2023-04-03T06:15:50;3.13;;;1.00;;
69161;SDS011;56269;51.738;21.652;2023-04-03T06:18:16;4.22;;;1.20;;
69161;SDS011;56269;51.738;21.652;2023-04-03T06:20:43;3.13;;;1.02;;
69161;SDS011;56269;51.738;21.652;2023-04-03T06:23:09;4.30;;;1.08;;
69161;SDS011;56269;51.738;21.652;2023-04-03T06:25:36;4.10;;;1.20;;
69161;SDS011;56269;51.738;21.652;2023-04-03T06:28:02;4.53;;;1.37;;
69161;SDS011;56269;51.738;21.652;2023-04-03T06:34:12;3.70;;;1.10;;
69161;SDS011;56269;51.738;21.652;2023-04-03T06:36:39;3.20;;;1.10;;
69161;SDS011;56269;51.738;21.652;2023-04-03T06:53:51;7.22;;;1.10;;
69161;SDS011;56269;51.738;21.652;2023-04-03T06:56:18;4.53;;;1.10;;
69161;SDS011;56269;51.738;21.652;2023-04-03T06:58:49;3.50;;;1.10;;
69161;SDS011;56269;51.738;21.652;2023-04-03T07:01:20;3.17;;;1.05;;
69161;SDS011;56269;51.738;21.652;2023-04-03T07:03:59;3.60;;;1.05;;
69161;SDS011;56269;51.738;21.652;2023-04-03T07:06:25;5.57;;;1.33;;
69161;SDS011;56269;51.738;21.652;2023-04-03T07:08:56;3.50;;;1.13;;
69161;SDS011;56269;51.738;21.652;2023-04-03T07:11:23;3.00;;;1.10;;
69161;SDS011;56269;51.738;21.652;2023-04-03T07:13:55;2.78;;;0.70;;
69161;SDS011;56269;51.738;21.652;2023-04-03T07:16:38;5.18;;;1.10;;
69161;SDS011;56269;51.738;21.652;2023-04-03T07:19:13;2.38;;;0.82;;
69161;SDS011;56269;51.738;21.652;2023-04-03T07:21:40;6.93;;;1.38;;
69161;SDS011;56269;51.738;21.652;2023-04-03T07:24:08;3.10;;;0.90;;
69161;SDS011;56269;51.738;21.652;2023-04-03T07:26:34;4.25;;;1.08;;
69161;SDS011;56269;51.738;21.652;2023-04-03T07:29:04;4.50;;;1.25;;
69161;SDS011;56269;51.738;21.652;2023-04-03T07:31:30;4.00;;;1.60;;
69161;SDS011;56269;51.738;21.652;2023-04-03T07:33:56;4.03;;;1.13;;
69161;SDS011;56269;51.738;21.652;2023-04-03T07:36:25;4.33;;;1.43;;
69161;SDS011;56269;51.738;21.652;2023-04-03T07:38:52;3.72;;;1.10;;
69161;SDS011;56269;51.738;21.652;2023-04-03T07:41:21;2.45;;;0.80;;
69161;SDS011;56269;51.738;21.652;2023-04-03T07:43:48;3.22;;;1.35;;
69161;SDS011;56269;51.738;21.652;2023-04-03T07:46:33;6.93;;;1.70;;
69161;SDS011;56269;51.738;21.652;2023-04-03T07:49:09;3.27;;;1.17;;
69161;SDS011;56269;51.738;21.652;2023-04-03T07:51:36;3.88;;;1.10;;
69161;SDS011;56269;51.738;21.652;2023-04-03T07:54:03;2.55;;;0.98;;
69161;SDS011;56269;51.738;21.652;2023-04-03T07:56:31;5.80;;;1.38;;
69161;SDS011;56269;51.738;21.652;2023-04-03T07:58:58;3.15;;;1.10;;
69161;SDS011;56269;51.738;21.652;2023-04-03T08:01:30;4.10;;;1.20;;
69161;SDS011;56269;51.738;21.652;2023-04-03T08:03:58;4.18;;;1.33;;
69161;SDS011;56269;51.738;21.652;2023-04-03T08:06:24;4.35;;;1.50;;
69161;SDS011;56269;51.738;21.652;2023-04-03T08:12:02;6.40;;;1.23;;
69161;SDS011;56269;51.738;21.652;2023-04-03T08:14:30;4.07;;;1.10;;
69161;SDS011;56269;51.738;21.652;2023-04-03T08:17:00;2.72;;;0.98;;
69161;SDS011;56269;51.738;21.652;2023-04-03T08:19:27;2.92;;;1.05;;
69161;SDS011;56269;51.738;21.652;2023-04-03T08:21:53;3.08;;;1.10;;
69161;SDS011;56269;51.738;21.652;2023-04-03T08:24:21;3.15;;;0.90;;
69161;SDS011;56269;51.738;21.652;2023-04-03T08:26:47;5.00;;;1.00;;
69161;SDS011;56269;51.738;21.652;2023-04-03T08:34:22;3.55;;;1.30;;
69161;SDS011;56269;51.738;21.652;2023-04-03T08:41:36;5.18;;;1.40;;
69161;SDS011;56269;51.738;21.652;2023-04-03T08:44:33;2.40;;;0.90;;
69161;SDS011;56269;51.738;21.652;2023-04-03T08:50:07;3.80;;;1.10;;
69161;SDS011;56269;51.738;21.652;2023-04-03T08:54:12;3.00;;;1.00;;
69161;SDS011;56269;51.738;21.652;2023-04-03T09:09:15;3.28;;;1.10;;
69161;SDS011;56269;51.738;21.652;2023-04-03T09:38:22;5.00;;;1.40;;
69161;SDS011;56269;51.738;21.652;2023-04-03T09:40:51;2.47;;;0.97;;
69161;SDS011;56269;51.738;21.652;2023-04-03T09:43:41;2.72;;;0.98;;
69161;SDS011;56269;51.738;21.652;2023-04-03T09:47:28;4.95;;;1.52;;
69161;SDS011;56269;51.738;21.652;2023-04-03T09:53:44;5.03;;;1.17;;
69161;SDS011;56269;51.738;21.652;2023-04-03T09:58:44;2.60;;;0.90;;
69161;SDS011;56269;51.738;21.652;2023-04-03T10:01:34;4.45;;;1.20;;
69161;SDS011;56269;51.738;21.652;2023-04-03T10:04:06;2.78;;;1.00;;
69161;SDS011;56269;51.738;21.652;2023-04-03T10:06:35;5.07;;;1.33;;
69161;SDS011;56269;51.738;21.652;2023-04-03T10:09:21;4.07;;;1.50;;
69161;SDS011;56269;51.738;21.652;2023-04-03T10:14:59;2.85;;;1.00;;
69161;SDS011;56269;51.738;21.652;2023-04-03T10:18:05;5.63;;;1.55;;
69161;SDS011;56269;51.738;21.652;2023-04-03T10:20:44;1.67;;;0.80;;
69161;SDS011;56269;51.738;21.652;2023-04-03T10:23:23;3.67;;;1.20;;
69161;SDS011;56269;51.738;21.652;2023-04-03T10:29:04;3.95;;;1.10;;
69161;SDS011;56269;51.738;21.652;2023-04-03T10:31:43;2.58;;;1.00;;
69161;SDS011;56269;51.738;21.652;2023-04-03T10:39:57;5.15;;;1.33;;
69161;SDS011;56269;51.738;21.652;2023-04-03T10:51:33;3.00;;;0.97;;
69161;SDS011;56269;51.738;21.652;2023-04-03T10:54:22;4.03;;;1.25;;
69161;SDS011;56269;51.738;21.652;2023-04-03T10:57:01;3.05;;;1.10;;
69161;SDS011;56269;51.738;21.652;2023-04-03T10:59:33;3.13;;;1.30;;
69161;SDS011;56269;51.738;21.652;2023-04-03T11:05:18;2.90;;;1.00;;
69161;SDS011;56269;51.738;21.652;2023-04-03T11:08:02;4.35;;;1.48;;
69161;SDS011;56269;51.738;21.652;2023-04-03T11:13:22;3.10;;;1.10;;
69161;SDS011;56269;51.738;21.652;2023-04-03T11:15:55;4.03;;;1.30;;
69161;SDS011;56269;51.738;21.652;2023-04-03T11:23:42;3.53;;;1.17;;
69161;SDS011;56269;51.738;21.652;2023-04-03T11:26:12;5.22;;;1.15;;
69161;SDS011;56269;51.738;21.652;2023-04-03T11:28:51;3.33;;;1.30;;
69161;SDS011;56269;51.738;21.652;2023-04-03T11:33:56;2.55;;;1.00;;
69161;SDS011;56269;51.738;21.652;2023-04-03T11:36:41;2.95;;;1.05;;
69161;SDS011;56269;51.738;21.652;2023-04-03T12:40:24;3.00;;;1.20;;
69161;SDS011;56269;51.738;21.652;2023-04-03T12:47:22;3.20;;;1.20;;
69161;SDS011;56269;51.738;21.652;2023-04-03T12:59:29;7.40;;;1.40;;
69161;SDS011;56269;51.738;21.652;2023-04-03T13:03:38;2.63;;;1.08;;
69161;SDS011;56269;51.738;21.652;2023-04-03T13:07:03;3.67;;;1.10;;
69161;SDS011;56269;51.738;21.652;2023-04-03T13:18:35;2.45;;;0.93;;
69161;SDS011;56269;51.738;21.652;2023-04-03T13:24:25;2.90;;;1.00;;
69161;SDS011;56269;51.738;21.652;2023-04-03T13:27:01;3.10;;;1.10;;
69161;SDS011;56269;51.738;21.652;2023-04-03T13:34:38;2.80;;;0.85;;
69161;SDS011;56269;51.738;21.652;2023-04-03T13:42:42;4.73;;;1.50;;
69161;SDS011;56269;51.738;21.652;2023-04-03T13:48:47;1.80;;;0.75;;
69161;SDS011;56269;51.738;21.652;2023-04-03T13:51:27;2.72;;;0.93;;
69161;SDS011;56269;51.738;21.652;2023-04-03T13:53:57;3.25;;;1.15;;
69161;SDS011;56269;51.738;21.652;2023-04-03T13:56:38;2.90;;;1.00;;
69161;SDS011;56269;51.738;21.652;2023-04-03T14:01:47;2.53;;;0.95;;
69161;SDS011;56269;51.738;21.652;2023-04-03T14:05:37;2.55;;;1.00;;
69161;SDS011;56269;51.738;21.652;2023-04-03T14:08:56;4.30;;;1.20;;
69161;SDS011;56269;51.738;21.652;2023-04-03T14:11:43;7.63;;;1.40;;
69161;SDS011;56269;51.738;21.652;2023-04-03T14:18:11;3.08;;;0.90;;
69161;SDS011;56269;51.738;21.652;2023-04-03T14:38:58;5.03;;;1.50;;
69161;SDS011;56269;51.738;21.652;2023-04-03T14:42:59;4.38;;;1.17;;
69161;SDS011;56269;51.738;21.652;2023-04-03T15:23:16;3.83;;;1.20;;
69161;SDS011;56269;51.738;21.652;2023-04-03T15:25:43;3.00;;;1.00;;
69161;SDS011;56269;51.738;21.652;2023-04-03T15:28:44;5.20;;;1.30;;
69161;SDS011;56269;51.738;21.652;2023-04-03T15:31:06;4.40;;;1.23;;
69161;SDS011;56269;51.738;21.652;2023-04-03T15:33:33;3.97;;;1.30;;
69161;SDS011;56269;51.738;21.652;2023-04-03T15:36:01;4.18;;;1.10;;
69161;SDS011;56269;51.738;21.652;2023-04-03T15:38:27;3.60;;;0.98;;
69161;SDS011;56269;51.738;21.652;2023-04-03T15:40:54;4.63;;;1.40;;
69161;SDS011;56269;51.738;21.652;2023-04-03T15:43:21;3.53;;;1.00;;
69161;SDS011;56269;51.738;21.652;2023-04-03T15:45:48;4.03;;;1.30;;
69161;SDS011;56269;51.738;21.652;2023-04-03T15:48:15;4.38;;;1.20;;
69161;SDS011;56269;51.738;21.652;2023-04-03T15:50:44;5.38;;;1.35;;
69161;SDS011;56269;51.738;21.652;2023-04-03T15:53:11;4.37;;;1.40;;
69161;SDS011;56269;51.738;21.652;2023-04-03T15:55:38;5.20;;;1.55;;
69161;SDS011;56269;51.738;21.652;2023-04-03T15:58:04;3.97;;;1.25;;
69161;SDS011;56269;51.738;21.652;2023-04-03T16:00:31;4.15;;;1.20;;
69161;SDS011;56269;51.738;21.652;2023-04-03T16:02:59;4.60;;;1.30;;
69161;SDS011;56269;51.738;21.652;2023-04-03T16:10:27;3.67;;;1.40;;
69161;SDS011;56269;51.738;21.652;2023-04-03T16:13:23;5.40;;;0.90;;
69161;SDS011;56269;51.738;21.652;2023-04-03T16:15:49;2.85;;;1.08;;
69161;SDS011;56269;51.738;21.652;2023-04-03T16:18:16;4.95;;;1.50;;
69161;SDS011;56269;51.738;21.652;2023-04-03T16:20:43;3.30;;;0.97;;
69161;SDS011;56269;51.738;21.652;2023-04-03T16:23:10;4.05;;;1.38;;
69161;SDS011;56269;51.738;21.652;2023-04-03T16:25:37;2.65;;;1.00;;
69161;SDS011;56269;51.738;21.652;2023-04-03T16:28:04;4.45;;;1.33;;
69161;SDS011;56269;51.738;21.652;2023-04-03T16:30:30;5.47;;;1.70;;
69161;SDS011;56269;51.738;21.652;2023-04-03T16:32:57;4.53;;;1.40;;
69161;SDS011;56269;51.738;21.652;2023-04-03T16:35:23;6.13;;;1.88;;
69161;SDS011;56269;51.738;21.652;2023-04-03T16:37:50;5.75;;;1.63;;
69161;SDS011;56269;51.738;21.652;2023-04-03T16:40:16;5.43;;;1.63;;
69161;SDS011;56269;51.738;21.652;2023-04-03T16:42:43;7.55;;;1.80;;
69161;SDS011;56269;51.738;21.652;2023-04-03T16:45:09;5.97;;;1.53;;
69161;SDS011;56269;51.738;21.652;2023-04-03T16:47:36;4.00;;;1.42;;
69161;SDS011;56269;51.738;21.652;2023-04-03T16:50:02;3.33;;;1.17;;
69161;SDS011;56269;51.738;21.652;2023-04-03T16:52:29;4.38;;;1.50;;
69161;SDS011;56269;51.738;21.652;2023-04-03T16:54:56;4.88;;;1.60;;
69161;SDS011;56269;51.738;21.652;2023-04-03T16:57:24;5.27;;;1.40;;
69161;SDS011;56269;51.738;21.652;2023-04-03T16:59:51;4.38;;;1.40;;
69161;SDS011;56269;51.738;21.652;2023-04-03T17:02:18;4.55;;;1.50;;
69161;SDS011;56269;51.738;21.652;2023-04-03T17:04:45;5.40;;;1.60;;
69161;SDS011;56269;51.738;21.652;2023-04-03T17:07:12;5.20;;;1.58;;
69161;SDS011;56269;51.738;21.652;2023-04-03T17:09:38;5.60;;;1.70;;
69161;SDS011;56269;51.738;21.652;2023-04-03T17:12:05;5.50;;;1.90;;
69161;SDS011;56269;51.738;21.652;2023-04-03T17:14:31;6.00;;;1.98;;
69161;SDS011;56269;51.738;21.652;2023-04-03T17:16:58;8.13;;;2.30;;
69161;SDS011;56269;51.738;21.652;2023-04-03T17:19:24;6.80;;;2.17;;
69161;SDS011;56269;51.738;21.652;2023-04-03T17:21:52;5.87;;;1.60;;
69161;SDS011;56269;51.738;21.652;2023-04-03T17:24:19;6.53;;;1.70;;
69161;SDS011;56269;51.738;21.652;2023-04-03T17:26:45;5.78;;;1.67;;
69161;SDS011;56269;51.738;21.652;2023-04-03T17:29:12;7.93;;;2.17;;
69161;SDS011;56269;51.738;21.652;2023-04-03T17:31:39;6.72;;;2.40;;
69161;SDS011;56269;51.738;21.652;2023-04-03T17:34:06;6.40;;;2.20;;
69161;SDS011;56269;51.738;21.652;2023-04-03T17:36:37;8.10;;;2.28;;
69161;SDS011;56269;51.738;21.652;2023-04-03T17:39:04;5.53;;;1.88;;
69161;SDS011;56269;51.738;21.652;2023-04-03T17:41:31;5.38;;;1.50;;
69161;SDS011;56269;51.738;21.652;2023-04-03T17:43:57;6.95;;;1.83;;
69161;SDS011;56269;51.738;21.652;2023-04-03T17:46:26;6.03;;;1.60;;
69161;SDS011;56269;51.738;21.652;2023-04-03T17:48:53;5.88;;;1.85;;
69161;SDS011;56269;51.738;21.652;2023-04-03T17:51:21;6.25;;;1.85;;
69161;SDS011;56269;51.738;21.652;2023-04-03T17:53:50;8.40;;;2.50;;
69161;SDS011;56269;51.738;21.652;2023-04-03T17:56:19;6.25;;;2.05;;
69161;SDS011;56269;51.738;21.652;2023-04-03T17:58:49;6.87;;;1.80;;
69161;SDS011;56269;51.738;21.652;2023-04-03T18:01:17;7.07;;;1.90;;
69161;SDS011;56269;51.738;21.652;2023-04-03T18:03:46;4.55;;;1.50;;
69161;SDS011;56269;51.738;21.652;2023-04-03T18:06:16;5.70;;;1.90;;
69161;SDS011;56269;51.738;21.652;2023-04-03T18:08:51;3.63;;;1.30;;
69161;SDS011;56269;51.738;21.652;2023-04-03T18:11:22;5.97;;;1.50;;
69161;SDS011;56269;51.738;21.652;2023-04-03T18:13:53;5.53;;;1.80;;
69161;SDS011;56269;51.738;21.652;2023-04-03T18:16:22;6.47;;;1.85;;
69161;SDS011;56269;51.738;21.652;2023-04-03T18:18:49;5.60;;;1.45;;
69161;SDS011;56269;51.738;21.652;2023-04-03T18:21:17;3.63;;;1.10;;
69161;SDS011;56269;51.738;21.652;2023-04-03T18:23:44;4.47;;;1.27;;
69161;SDS011;56269;51.738;21.652;2023-04-03T18:26:15;4.68;;;1.50;;
69161;SDS011;56269;51.738;21.652;2023-04-03T18:28:52;8.10;;;1.80;;
69161;SDS011;56269;51.738;21.652;2023-04-03T18:31:25;5.85;;;1.45;;
69161;SDS011;56269;51.738;21.652;2023-04-03T18:33:53;4.55;;;1.50;;
69161;SDS011;56269;51.738;21.652;2023-04-03T18:36:25;6.97;;;1.80;;
69161;SDS011;56269;51.738;21.652;2023-04-03T18:38:53;5.10;;;1.70;;
69161;SDS011;56269;51.738;21.652;2023-04-03T18:41:22;6.55;;;1.90;;
69161;SDS011;56269;51.738;21.652;2023-04-03T18:43:52;5.15;;;1.30;;
69161;SDS011;56269;51.738;21.652;2023-04-03T18:46:23;6.13;;;1.70;;
69161;SDS011;56269;51.738;21.652;2023-04-03T18:48:50;6.57;;;2.30;;
69161;SDS011;56269;51.738;21.652;2023-04-03T18:51:19;5.78;;;2.03;;
69161;SDS011;56269;51.738;21.652;2023-04-03T18:53:46;4.57;;;1.52;;
69161;SDS011;56269;51.738;21.652;2023-04-03T18:56:15;7.97;;;1.90;;
69161;SDS011;56269;51.738;21.652;2023-04-03T18:58:42;4.80;;;1.50;;
69161;SDS011;56269;51.738;21.652;2023-04-03T19:01:09;3.77;;;1.40;;
69161;SDS011;56269;51.738;21.652;2023-04-03T19:03:36;8.93;;;2.15;;
69161;SDS011;56269;51.738;21.652;2023-04-03T19:06:04;4.22;;;1.35;;
69161;SDS011;56269;51.738;21.652;2023-04-03T19:08:32;8.40;;;2.10;;
69161;SDS011;56269;51.738;21.652;2023-04-03T19:11:00;4.38;;;1.45;;
69161;SDS011;56269;51.738;21.652;2023-04-03T19:13:27;4.40;;;1.60;;
69161;SDS011;56269;51.738;21.652;2023-04-03T19:15:55;5.97;;;1.70;;
69161;SDS011;56269;51.738;21.652;2023-04-03T19:18:25;5.63;;;1.90;;
69161;SDS011;56269;51.738;21.652;2023-04-03T19:20:53;3.90;;;1.17;;
69161;SDS011;56269;51.738;21.652;2023-04-03T19:23:25;7.80;;;1.90;;
69161;SDS011;56269;51.738;21.652;2023-04-03T19:25:56;6.07;;;1.97;;
69161;SDS011;56269;51.738;21.652;2023-04-03T19:28:28;8.38;;;1.70;;
69161;SDS011;56269;51.738;21.652;2023-04-03T19:30:56;6.18;;;2.00;;
69161;SDS011;56269;51.738;21.652;2023-04-03T19:33:24;6.78;;;1.90;;
69161;SDS011;56269;51.738;21.652;2023-04-03T19:35:51;5.03;;;1.58;;
69161;SDS011;56269;51.738;21.652;2023-04-03T19:38:19;6.33;;;2.13;;
69161;SDS011;56269;51.738;21.652;2023-04-03T19:40:47;6.70;;;2.20;;